sensor_id;sensor_type;location;lat;lon;timestamp;P1;durP1;ratioP1;P2;durP2;ratioP2
72797;SDS011;61084;55.816;37.036;2023-04-22T00:01:31;8.27;;;3.38;;
72797;SDS011;61084;55.816;37.036;2023-04-22T00:03:57;8.70;;;3.00;;
72797;SDS011;61084;55.816;37.036;2023-04-22T00:06:23;7.43;;;2.92;;
72797;SDS011;61084;55.816;37.036;2023-04-22T00:08:49;26.90;;;8.65;;
72797;SDS011;61084;55.816;37.036;2023-04-22T00:11:14;17.65;;;6.35;;
72797;SDS011;61084;55.816;37.036;2023-04-22T00:13:41;11.05;;;4.05;;
72797;SDS011;61084;55.816;37.036;2023-04-22T00:16:07;9.30;;;3.92;;
72797;SDS011;61084;55.816;37.036;2023-04-22T00:18:33;14.23;;;5.40;;
72797;SDS011;61084;55.816;37.036;2023-04-22T00:21:01;11.85;;;5.72;;
72797;SDS011;61084;55.816;37.036;2023-04-22T00:23:28;13.73;;;5.22;;
72797;SDS011;61084;55.816;37.036;2023-04-22T00:25:53;6.70;;;2.88;;
72797;SDS011;61084;55.816;37.036;2023-04-22T00:28:19;5.07;;;2.45;;
72797;SDS011;61084;55.816;37.036;2023-04-22T00:30:46;7.38;;;2.10;;
72797;SDS011;61084;55.816;37.036;2023-04-22T00:33:11;5.15;;;2.08;;
72797;SDS011;61084;55.816;37.036;2023-04-22T00:35:37;10.85;;;4.00;;
72797;SDS011;61084;55.816;37.036;2023-04-22T00:38:03;11.48;;;3.88;;
72797;SDS011;61084;55.816;37.036;2023-04-22T00:40:29;5.95;;;2.35;;
72797;SDS011;61084;55.816;37.036;2023-04-22T00:42:55;6.18;;;2.80;;
72797;SDS011;61084;55.816;37.036;2023-04-22T00:45:22;14.35;;;5.78;;
72797;SDS011;61084;55.816;37.036;2023-04-22T00:47:51;13.02;;;5.00;;
72797;SDS011;61084;55.816;37.036;2023-04-22T00:50:17;10.25;;;3.88;;
72797;SDS011;61084;55.816;37.036;2023-04-22T00:52:43;10.02;;;3.85;;
72797;SDS011;61084;55.816;37.036;2023-04-22T00:55:09;10.30;;;3.00;;
72797;SDS011;61084;55.816;37.036;2023-04-22T01:00:03;5.47;;;2.00;;
72797;SDS011;61084;55.816;37.036;2023-04-22T01:02:32;8.90;;;2.00;;
72797;SDS011;61084;55.816;37.036;2023-04-22T01:04:58;3.40;;;1.67;;
72797;SDS011;61084;55.816;37.036;2023-04-22T01:07:25;3.80;;;1.85;;
72797;SDS011;61084;55.816;37.036;2023-04-22T01:09:51;2.35;;;1.63;;
72797;SDS011;61084;55.816;37.036;2023-04-22T01:12:35;5.68;;;2.20;;
72797;SDS011;61084;55.816;37.036;2023-04-22T01:15:01;5.47;;;2.75;;
72797;SDS011;61084;55.816;37.036;2023-04-22T01:17:30;6.80;;;3.10;;
72797;SDS011;61084;55.816;37.036;2023-04-22T01:19:59;5.13;;;2.60;;
72797;SDS011;61084;55.816;37.036;2023-04-22T01:22:25;8.38;;;3.30;;
72797;SDS011;61084;55.816;37.036;2023-04-22T01:24:58;9.60;;;4.53;;
72797;SDS011;61084;55.816;37.036;2023-04-22T01:27:23;3.65;;;2.08;;
72797;SDS011;61084;55.816;37.036;2023-04-22T01:29:50;3.78;;;1.60;;
72797;SDS011;61084;55.816;37.036;2023-04-22T01:32:17;5.78;;;2.00;;
72797;SDS011;61084;55.816;37.036;2023-04-22T01:34:43;3.08;;;1.35;;
72797;SDS011;61084;55.816;37.036;2023-04-22T01:37:18;4.90;;;2.40;;
72797;SDS011;61084;55.816;37.036;2023-04-22T01:39:44;3.90;;;1.50;;
72797;SDS011;61084;55.816;37.036;2023-04-22T01:42:12;5.25;;;1.83;;
72797;SDS011;61084;55.816;37.036;2023-04-22T01:44:38;7.03;;;2.28;;
72797;SDS011;61084;55.816;37.036;2023-04-22T01:47:04;5.32;;;1.80;;
72797;SDS011;61084;55.816;37.036;2023-04-22T01:49:30;3.97;;;1.88;;
72797;SDS011;61084;55.816;37.036;2023-04-22T01:51:59;4.40;;;2.05;;
72797;SDS011;61084;55.816;37.036;2023-04-22T01:54:25;3.05;;;1.83;;
72797;SDS011;61084;55.816;37.036;2023-04-22T01:56:52;7.30;;;2.60;;
72797;SDS011;61084;55.816;37.036;2023-04-22T01:59:19;7.50;;;3.05;;
72797;SDS011;61084;55.816;37.036;2023-04-22T02:01:46;8.23;;;3.10;;
72797;SDS011;61084;55.816;37.036;2023-04-22T02:04:12;8.18;;;3.80;;
72797;SDS011;61084;55.816;37.036;2023-04-22T02:06:40;10.35;;;4.70;;
72797;SDS011;61084;55.816;37.036;2023-04-22T02:09:06;8.45;;;4.30;;
72797;SDS011;61084;55.816;37.036;2023-04-22T02:11:31;10.02;;;4.75;;
72797;SDS011;61084;55.816;37.036;2023-04-22T02:13:58;10.00;;;4.22;;
72797;SDS011;61084;55.816;37.036;2023-04-22T02:16:24;11.27;;;5.10;;
72797;SDS011;61084;55.816;37.036;2023-04-22T02:18:50;9.85;;;4.68;;
72797;SDS011;61084;55.816;37.036;2023-04-22T02:21:16;8.98;;;3.95;;
72797;SDS011;61084;55.816;37.036;2023-04-22T02:23:42;7.97;;;4.10;;
72797;SDS011;61084;55.816;37.036;2023-04-22T02:26:08;9.20;;;3.80;;
72797;SDS011;61084;55.816;37.036;2023-04-22T02:28:34;5.82;;;2.80;;
72797;SDS011;61084;55.816;37.036;2023-04-22T02:31:00;5.70;;;1.83;;
72797;SDS011;61084;55.816;37.036;2023-04-22T02:33:26;11.60;;;1.70;;
72797;SDS011;61084;55.816;37.036;2023-04-22T02:35:52;5.93;;;1.58;;
72797;SDS011;61084;55.816;37.036;2023-04-22T02:38:18;2.70;;;1.52;;
72797;SDS011;61084;55.816;37.036;2023-04-22T02:40:45;4.50;;;1.73;;
72797;SDS011;61084;55.816;37.036;2023-04-22T02:43:11;3.03;;;1.70;;
72797;SDS011;61084;55.816;37.036;2023-04-22T02:45:37;3.90;;;1.40;;
72797;SDS011;61084;55.816;37.036;2023-04-22T02:48:05;4.00;;;1.73;;
72797;SDS011;61084;55.816;37.036;2023-04-22T02:50:31;3.80;;;1.80;;
72797;SDS011;61084;55.816;37.036;2023-04-22T02:52:56;3.42;;;1.90;;
72797;SDS011;61084;55.816;37.036;2023-04-22T02:55:22;7.07;;;1.90;;
72797;SDS011;61084;55.816;37.036;2023-04-22T02:57:49;7.90;;;1.83;;
72797;SDS011;61084;55.816;37.036;2023-04-22T03:00:15;5.47;;;2.30;;
72797;SDS011;61084;55.816;37.036;2023-04-22T03:02:41;3.47;;;1.77;;
72797;SDS011;61084;55.816;37.036;2023-04-22T03:05:12;2.72;;;1.60;;
72797;SDS011;61084;55.816;37.036;2023-04-22T03:07:38;6.97;;;2.10;;
72797;SDS011;61084;55.816;37.036;2023-04-22T03:10:05;4.30;;;2.03;;
72797;SDS011;61084;55.816;37.036;2023-04-22T03:12:32;2.63;;;1.70;;
72797;SDS011;61084;55.816;37.036;2023-04-22T03:14:58;8.38;;;1.92;;
72797;SDS011;61084;55.816;37.036;2023-04-22T03:17:31;5.18;;;2.17;;
72797;SDS011;61084;55.816;37.036;2023-04-22T03:19:59;6.43;;;2.17;;
72797;SDS011;61084;55.816;37.036;2023-04-22T03:22:25;4.88;;;2.55;;
72797;SDS011;61084;55.816;37.036;2023-04-22T03:24:55;6.00;;;2.75;;
72797;SDS011;61084;55.816;37.036;2023-04-22T03:27:20;7.15;;;2.65;;
72797;SDS011;61084;55.816;37.036;2023-04-22T03:29:46;5.65;;;2.90;;
72797;SDS011;61084;55.816;37.036;2023-04-22T03:32:12;10.85;;;3.25;;
72797;SDS011;61084;55.816;37.036;2023-04-22T03:34:38;7.32;;;3.70;;
72797;SDS011;61084;55.816;37.036;2023-04-22T03:37:07;11.73;;;3.33;;
72797;SDS011;61084;55.816;37.036;2023-04-22T03:39:33;7.63;;;2.88;;
72797;SDS011;61084;55.816;37.036;2023-04-22T03:42:00;8.13;;;2.72;;
72797;SDS011;61084;55.816;37.036;2023-04-22T03:44:27;8.00;;;3.00;;
72797;SDS011;61084;55.816;37.036;2023-04-22T03:46:54;6.88;;;3.25;;
72797;SDS011;61084;55.816;37.036;2023-04-22T03:49:23;7.35;;;3.30;;
72797;SDS011;61084;55.816;37.036;2023-04-22T03:51:49;7.85;;;3.15;;
72797;SDS011;61084;55.816;37.036;2023-04-22T03:54:18;6.28;;;3.22;;
72797;SDS011;61084;55.816;37.036;2023-04-22T03:56:49;7.18;;;3.13;;
72797;SDS011;61084;55.816;37.036;2023-04-22T03:59:16;6.97;;;3.30;;
72797;SDS011;61084;55.816;37.036;2023-04-22T04:01:44;8.70;;;3.50;;
72797;SDS011;61084;55.816;37.036;2023-04-22T04:04:29;7.50;;;3.05;;
72797;SDS011;61084;55.816;37.036;2023-04-22T04:06:59;5.97;;;2.50;;
72797;SDS011;61084;55.816;37.036;2023-04-22T04:09:26;6.00;;;2.47;;
72797;SDS011;61084;55.816;37.036;2023-04-22T04:11:52;6.32;;;3.00;;
72797;SDS011;61084;55.816;37.036;2023-04-22T04:14:18;4.88;;;2.42;;
72797;SDS011;61084;55.816;37.036;2023-04-22T04:16:46;5.50;;;2.30;;
72797;SDS011;61084;55.816;37.036;2023-04-22T04:19:19;4.93;;;2.08;;
72797;SDS011;61084;55.816;37.036;2023-04-22T04:21:47;6.55;;;2.20;;
72797;SDS011;61084;55.816;37.036;2023-04-22T04:24:13;5.13;;;2.15;;
72797;SDS011;61084;55.816;37.036;2023-04-22T04:26:44;4.55;;;2.13;;
72797;SDS011;61084;55.816;37.036;2023-04-22T04:29:15;4.53;;;2.25;;
72797;SDS011;61084;55.816;37.036;2023-04-22T04:31:51;4.40;;;1.70;;
72797;SDS011;61084;55.816;37.036;2023-04-22T04:34:17;4.22;;;1.63;;
72797;SDS011;61084;55.816;37.036;2023-04-22T04:36:44;4.75;;;1.52;;
72797;SDS011;61084;55.816;37.036;2023-04-22T04:39:20;5.15;;;1.67;;
72797;SDS011;61084;55.816;37.036;2023-04-22T04:41:46;4.25;;;1.70;;
72797;SDS011;61084;55.816;37.036;2023-04-22T04:44:15;3.60;;;1.20;;
72797;SDS011;61084;55.816;37.036;2023-04-22T04:46:41;2.50;;;1.63;;
72797;SDS011;61084;55.816;37.036;2023-04-22T04:49:08;3.63;;;1.58;;
72797;SDS011;61084;55.816;37.036;2023-04-22T04:51:46;4.00;;;1.55;;
72797;SDS011;61084;55.816;37.036;2023-04-22T04:54:12;2.05;;;1.20;;
72797;SDS011;61084;55.816;37.036;2023-04-22T04:56:39;3.65;;;1.40;;
72797;SDS011;61084;55.816;37.036;2023-04-22T04:59:07;2.40;;;1.58;;
72797;SDS011;61084;55.816;37.036;2023-04-22T05:01:33;3.05;;;1.58;;
72797;SDS011;61084;55.816;37.036;2023-04-22T05:04:05;5.45;;;1.63;;
72797;SDS011;61084;55.816;37.036;2023-04-22T05:06:31;7.57;;;1.70;;
72797;SDS011;61084;55.816;37.036;2023-04-22T05:09:02;2.90;;;1.52;;
72797;SDS011;61084;55.816;37.036;2023-04-22T05:11:28;4.13;;;1.92;;
72797;SDS011;61084;55.816;37.036;2023-04-22T05:13:56;3.00;;;1.40;;
72797;SDS011;61084;55.816;37.036;2023-04-22T05:16:29;4.40;;;1.70;;
72797;SDS011;61084;55.816;37.036;2023-04-22T05:18:56;2.35;;;1.00;;
72797;SDS011;61084;55.816;37.036;2023-04-22T05:21:22;3.35;;;1.40;;
72797;SDS011;61084;55.816;37.036;2023-04-22T05:23:48;2.00;;;1.17;;
72797;SDS011;61084;55.816;37.036;2023-04-22T05:26:14;2.78;;;1.33;;
72797;SDS011;61084;55.816;37.036;2023-04-22T05:28:42;2.83;;;1.25;;
72797;SDS011;61084;55.816;37.036;2023-04-22T05:31:08;4.00;;;1.17;;
72797;SDS011;61084;55.816;37.036;2023-04-22T05:33:35;5.70;;;1.20;;
72797;SDS011;61084;55.816;37.036;2023-04-22T05:36:01;4.35;;;1.20;;
72797;SDS011;61084;55.816;37.036;2023-04-22T05:38:27;3.20;;;1.90;;
72797;SDS011;61084;55.816;37.036;2023-04-22T05:40:54;2.95;;;1.50;;
72797;SDS011;61084;55.816;37.036;2023-04-22T05:43:22;3.22;;;1.70;;
72797;SDS011;61084;55.816;37.036;2023-04-22T05:45:55;4.43;;;1.50;;
72797;SDS011;61084;55.816;37.036;2023-04-22T05:48:21;2.00;;;0.90;;
72797;SDS011;61084;55.816;37.036;2023-04-22T05:50:56;1.73;;;0.77;;
72797;SDS011;61084;55.816;37.036;2023-04-22T05:53:25;3.28;;;0.85;;
72797;SDS011;61084;55.816;37.036;2023-04-22T05:55:50;1.90;;;1.48;;
72797;SDS011;61084;55.816;37.036;2023-04-22T05:58:17;3.63;;;1.30;;
72797;SDS011;61084;55.816;37.036;2023-04-22T06:00:48;1.17;;;0.85;;
72797;SDS011;61084;55.816;37.036;2023-04-22T06:03:34;3.13;;;1.42;;
72797;SDS011;61084;55.816;37.036;2023-04-22T06:06:01;2.08;;;0.82;;
72797;SDS011;61084;55.816;37.036;2023-04-22T06:11:43;1.40;;;0.70;;
72797;SDS011;61084;55.816;37.036;2023-04-22T06:14:12;0.60;;;0.30;;
72797;SDS011;61084;55.816;37.036;2023-04-22T06:16:40;1.23;;;0.70;;
72797;SDS011;61084;55.816;37.036;2023-04-22T06:19:06;1.55;;;0.60;;
72797;SDS011;61084;55.816;37.036;2023-04-22T06:21:33;1.35;;;0.60;;
72797;SDS011;61084;55.816;37.036;2023-04-22T06:24:01;2.38;;;0.70;;
72797;SDS011;61084;55.816;37.036;2023-04-22T06:26:29;1.95;;;0.65;;
72797;SDS011;61084;55.816;37.036;2023-04-22T06:29:13;1.00;;;0.47;;
72797;SDS011;61084;55.816;37.036;2023-04-22T06:31:58;1.55;;;0.70;;
72797;SDS011;61084;55.816;37.036;2023-04-22T06:34:24;2.42;;;0.50;;
72797;SDS011;61084;55.816;37.036;2023-04-22T06:39:36;0.68;;;0.52;;
72797;SDS011;61084;55.816;37.036;2023-04-22T06:42:29;3.83;;;0.90;;
72797;SDS011;61084;55.816;37.036;2023-04-22T06:45:13;1.92;;;0.55;;
72797;SDS011;61084;55.816;37.036;2023-04-22T06:47:58;3.20;;;0.70;;
72797;SDS011;61084;55.816;37.036;2023-04-22T06:50:34;3.95;;;0.90;;
72797;SDS011;61084;55.816;37.036;2023-04-22T06:53:00;2.50;;;0.63;;
72797;SDS011;61084;55.816;37.036;2023-04-22T06:55:27;2.60;;;0.70;;
72797;SDS011;61084;55.816;37.036;2023-04-22T06:57:52;1.35;;;0.75;;
72797;SDS011;61084;55.816;37.036;2023-04-22T07:00:18;2.33;;;0.80;;
72797;SDS011;61084;55.816;37.036;2023-04-22T07:02:45;1.15;;;0.77;;
72797;SDS011;61084;55.816;37.036;2023-04-22T07:05:12;0.98;;;0.70;;
72797;SDS011;61084;55.816;37.036;2023-04-22T07:07:39;1.88;;;0.80;;
72797;SDS011;61084;55.816;37.036;2023-04-22T07:10:05;1.90;;;1.02;;
72797;SDS011;61084;55.816;37.036;2023-04-22T07:12:38;1.30;;;0.75;;
72797;SDS011;61084;55.816;37.036;2023-04-22T07:15:04;1.23;;;0.75;;
72797;SDS011;61084;55.816;37.036;2023-04-22T07:17:31;1.55;;;0.60;;
72797;SDS011;61084;55.816;37.036;2023-04-22T07:22:42;1.35;;;0.90;;
72797;SDS011;61084;55.816;37.036;2023-04-22T07:25:08;1.98;;;0.77;;
72797;SDS011;61084;55.816;37.036;2023-04-22T07:27:35;3.28;;;0.90;;
72797;SDS011;61084;55.816;37.036;2023-04-22T07:30:01;1.38;;;0.63;;
72797;SDS011;61084;55.816;37.036;2023-04-22T07:32:30;2.90;;;0.77;;
72797;SDS011;61084;55.816;37.036;2023-04-22T07:35:01;3.08;;;0.63;;
72797;SDS011;61084;55.816;37.036;2023-04-22T07:37:29;2.63;;;0.60;;
72797;SDS011;61084;55.816;37.036;2023-04-22T07:39:55;2.10;;;0.70;;
72797;SDS011;61084;55.816;37.036;2023-04-22T07:42:21;2.38;;;0.65;;
72797;SDS011;61084;55.816;37.036;2023-04-22T07:44:47;2.67;;;0.63;;
72797;SDS011;61084;55.816;37.036;2023-04-22T07:47:13;1.20;;;0.68;;
72797;SDS011;61084;55.816;37.036;2023-04-22T07:49:38;2.30;;;1.00;;
72797;SDS011;61084;55.816;37.036;2023-04-22T07:52:04;2.63;;;0.40;;
72797;SDS011;61084;55.816;37.036;2023-04-22T07:54:30;1.20;;;0.80;;
72797;SDS011;61084;55.816;37.036;2023-04-22T07:56:56;2.55;;;0.60;;
72797;SDS011;61084;55.816;37.036;2023-04-22T07:59:22;1.10;;;0.63;;
72797;SDS011;61084;55.816;37.036;2023-04-22T08:01:48;2.28;;;1.05;;
72797;SDS011;61084;55.816;37.036;2023-04-22T08:04:14;2.65;;;0.70;;
72797;SDS011;61084;55.816;37.036;2023-04-22T08:06:40;2.70;;;1.02;;
72797;SDS011;61084;55.816;37.036;2023-04-22T08:09:06;0.65;;;0.60;;
72797;SDS011;61084;55.816;37.036;2023-04-22T08:11:32;1.70;;;0.93;;
72797;SDS011;61084;55.816;37.036;2023-04-22T08:13:57;3.65;;;0.95;;
72797;SDS011;61084;55.816;37.036;2023-04-22T08:16:23;2.10;;;1.00;;
72797;SDS011;61084;55.816;37.036;2023-04-22T08:18:50;1.10;;;0.88;;
72797;SDS011;61084;55.816;37.036;2023-04-22T08:23:42;2.20;;;1.00;;
72797;SDS011;61084;55.816;37.036;2023-04-22T08:26:08;4.20;;;0.80;;
72797;SDS011;61084;55.816;37.036;2023-04-22T08:28:39;3.08;;;0.70;;
72797;SDS011;61084;55.816;37.036;2023-04-22T08:31:06;1.88;;;0.70;;
72797;SDS011;61084;55.816;37.036;2023-04-22T08:33:34;5.90;;;1.10;;
72797;SDS011;61084;55.816;37.036;2023-04-22T08:36:01;1.83;;;0.93;;
72797;SDS011;61084;55.816;37.036;2023-04-22T08:38:28;1.67;;;0.63;;
72797;SDS011;61084;55.816;37.036;2023-04-22T08:40:55;2.70;;;1.00;;
72797;SDS011;61084;55.816;37.036;2023-04-22T08:43:26;4.40;;;1.10;;
72797;SDS011;61084;55.816;37.036;2023-04-22T08:45:54;2.35;;;1.02;;
72797;SDS011;61084;55.816;37.036;2023-04-22T08:48:20;1.45;;;0.95;;
72797;SDS011;61084;55.816;37.036;2023-04-22T08:50:48;1.33;;;0.82;;
72797;SDS011;61084;55.816;37.036;2023-04-22T08:53:15;1.17;;;0.75;;
72797;SDS011;61084;55.816;37.036;2023-04-22T08:55:42;1.55;;;0.95;;
72797;SDS011;61084;55.816;37.036;2023-04-22T08:58:09;2.78;;;1.25;;
72797;SDS011;61084;55.816;37.036;2023-04-22T09:00:37;3.80;;;3.03;;
72797;SDS011;61084;55.816;37.036;2023-04-22T09:03:06;7.25;;;4.13;;
72797;SDS011;61084;55.816;37.036;2023-04-22T09:05:32;4.07;;;1.17;;
72797;SDS011;61084;55.816;37.036;2023-04-22T09:08:01;2.42;;;0.90;;
72797;SDS011;61084;55.816;37.036;2023-04-22T09:10:28;2.58;;;0.82;;
72797;SDS011;61084;55.816;37.036;2023-04-22T09:12:55;1.13;;;0.80;;
72797;SDS011;61084;55.816;37.036;2023-04-22T09:15:25;2.22;;;1.73;;
72797;SDS011;61084;55.816;37.036;2023-04-22T09:17:52;2.03;;;1.10;;
72797;SDS011;61084;55.816;37.036;2023-04-22T09:20:17;1.83;;;1.10;;
72797;SDS011;61084;55.816;37.036;2023-04-22T09:25:14;3.30;;;1.00;;
72797;SDS011;61084;55.816;37.036;2023-04-22T09:27:47;2.25;;;1.40;;
72797;SDS011;61084;55.816;37.036;2023-04-22T09:30:13;3.90;;;1.27;;
72797;SDS011;61084;55.816;37.036;2023-04-22T09:32:39;1.55;;;1.10;;
72797;SDS011;61084;55.816;37.036;2023-04-22T09:35:05;4.93;;;2.78;;
72797;SDS011;61084;55.816;37.036;2023-04-22T09:37:31;2.25;;;1.48;;
72797;SDS011;61084;55.816;37.036;2023-04-22T09:42:23;3.50;;;1.30;;
72797;SDS011;61084;55.816;37.036;2023-04-22T09:44:50;1.83;;;0.80;;
72797;SDS011;61084;55.816;37.036;2023-04-22T09:47:19;1.88;;;0.85;;
72797;SDS011;61084;55.816;37.036;2023-04-22T09:49:48;13.32;;;8.18;;
72797;SDS011;61084;55.816;37.036;2023-04-22T09:52:22;1.98;;;0.90;;
72797;SDS011;61084;55.816;37.036;2023-04-22T09:54:49;1.80;;;0.80;;
72797;SDS011;61084;55.816;37.036;2023-04-22T09:57:19;9.30;;;6.45;;
72797;SDS011;61084;55.816;37.036;2023-04-22T10:05:02;2.92;;;0.90;;
72797;SDS011;61084;55.816;37.036;2023-04-22T10:07:28;3.03;;;1.08;;
72797;SDS011;61084;55.816;37.036;2023-04-22T10:10:13;2.38;;;0.90;;
72797;SDS011;61084;55.816;37.036;2023-04-22T10:12:41;0.95;;;0.70;;
72797;SDS011;61084;55.816;37.036;2023-04-22T10:15:07;4.70;;;0.80;;
72797;SDS011;61084;55.816;37.036;2023-04-22T10:20:02;2.78;;;1.25;;
72797;SDS011;61084;55.816;37.036;2023-04-22T10:22:32;3.33;;;0.90;;
72797;SDS011;61084;55.816;37.036;2023-04-22T10:25:00;1.60;;;0.77;;
72797;SDS011;61084;55.816;37.036;2023-04-22T10:27:26;5.40;;;2.45;;
72797;SDS011;61084;55.816;37.036;2023-04-22T10:29:52;2.90;;;1.70;;
72797;SDS011;61084;55.816;37.036;2023-04-22T10:34:47;2.63;;;1.30;;
72797;SDS011;61084;55.816;37.036;2023-04-22T10:37:16;2.13;;;1.50;;
72797;SDS011;61084;55.816;37.036;2023-04-22T10:40:04;4.63;;;2.25;;
72797;SDS011;61084;55.816;37.036;2023-04-22T10:42:34;1.30;;;0.80;;
72797;SDS011;61084;55.816;37.036;2023-04-22T10:45:01;1.30;;;0.70;;
72797;SDS011;61084;55.816;37.036;2023-04-22T10:47:47;1.20;;;0.80;;
72797;SDS011;61084;55.816;37.036;2023-04-22T10:52:40;5.63;;;0.60;;
72797;SDS011;61084;55.816;37.036;2023-04-22T10:55:10;6.32;;;1.00;;
72797;SDS011;61084;55.816;37.036;2023-04-22T10:57:37;2.58;;;0.82;;
72797;SDS011;61084;55.816;37.036;2023-04-22T11:00:24;1.17;;;0.88;;
72797;SDS011;61084;55.816;37.036;2023-04-22T11:05:30;1.85;;;1.10;;
72797;SDS011;61084;55.816;37.036;2023-04-22T11:08:01;5.00;;;1.10;;
72797;SDS011;61084;55.816;37.036;2023-04-22T11:10:29;1.77;;;1.02;;
72797;SDS011;61084;55.816;37.036;2023-04-22T11:13:11;1.70;;;0.80;;
72797;SDS011;61084;55.816;37.036;2023-04-22T11:15:40;1.75;;;1.00;;
72797;SDS011;61084;55.816;37.036;2023-04-22T11:18:13;1.85;;;0.90;;
72797;SDS011;61084;55.816;37.036;2023-04-22T11:20:41;1.95;;;1.10;;
72797;SDS011;61084;55.816;37.036;2023-04-22T11:23:07;2.22;;;0.90;;
72797;SDS011;61084;55.816;37.036;2023-04-22T11:25:36;7.38;;;0.80;;
72797;SDS011;61084;55.816;37.036;2023-04-22T11:28:02;1.83;;;0.80;;
72797;SDS011;61084;55.816;37.036;2023-04-22T11:30:28;1.85;;;1.00;;
72797;SDS011;61084;55.816;37.036;2023-04-22T11:32:56;2.78;;;1.10;;
72797;SDS011;61084;55.816;37.036;2023-04-22T11:35:25;1.20;;;1.00;;
72797;SDS011;61084;55.816;37.036;2023-04-22T11:38:01;3.25;;;1.02;;
72797;SDS011;61084;55.816;37.036;2023-04-22T11:40:31;1.63;;;1.02;;
72797;SDS011;61084;55.816;37.036;2023-04-22T11:43:02;1.60;;;1.05;;
72797;SDS011;61084;55.816;37.036;2023-04-22T11:45:31;1.73;;;1.20;;
72797;SDS011;61084;55.816;37.036;2023-04-22T11:48:00;1.98;;;1.08;;
72797;SDS011;61084;55.816;37.036;2023-04-22T11:50:28;2.30;;;1.45;;
72797;SDS011;61084;55.816;37.036;2023-04-22T11:53:29;3.88;;;1.50;;
72797;SDS011;61084;55.816;37.036;2023-04-22T11:55:49;2.95;;;0.98;;
72797;SDS011;61084;55.816;37.036;2023-04-22T11:58:17;1.25;;;1.02;;
72797;SDS011;61084;55.816;37.036;2023-04-22T12:00:50;2.47;;;0.93;;
72797;SDS011;61084;55.816;37.036;2023-04-22T12:03:18;1.30;;;0.80;;
72797;SDS011;61084;55.816;37.036;2023-04-22T12:06:02;2.28;;;0.80;;
72797;SDS011;61084;55.816;37.036;2023-04-22T12:08:38;2.60;;;0.90;;
72797;SDS011;61084;55.816;37.036;2023-04-22T12:11:07;2.60;;;0.88;;
72797;SDS011;61084;55.816;37.036;2023-04-22T12:16:04;1.70;;;0.90;;
72797;SDS011;61084;55.816;37.036;2023-04-22T12:18:57;2.17;;;1.10;;
72797;SDS011;61084;55.816;37.036;2023-04-22T12:21:21;11.98;;;1.10;;
72797;SDS011;61084;55.816;37.036;2023-04-22T12:23:59;1.90;;;0.80;;
72797;SDS011;61084;55.816;37.036;2023-04-22T12:26:29;3.60;;;1.25;;
72797;SDS011;61084;55.816;37.036;2023-04-22T12:28:56;1.42;;;0.88;;
72797;SDS011;61084;55.816;37.036;2023-04-22T12:31:23;2.25;;;1.08;;
72797;SDS011;61084;55.816;37.036;2023-04-22T12:33:49;2.33;;;1.00;;
72797;SDS011;61084;55.816;37.036;2023-04-22T12:36:16;5.00;;;1.23;;
72797;SDS011;61084;55.816;37.036;2023-04-22T12:38:45;1.77;;;1.00;;
72797;SDS011;61084;55.816;37.036;2023-04-22T12:41:11;3.75;;;0.90;;
72797;SDS011;61084;55.816;37.036;2023-04-22T12:43:39;1.90;;;1.00;;
72797;SDS011;61084;55.816;37.036;2023-04-22T12:46:06;4.15;;;1.33;;
72797;SDS011;61084;55.816;37.036;2023-04-22T12:48:33;2.40;;;1.10;;
72797;SDS011;61084;55.816;37.036;2023-04-22T12:51:02;1.73;;;1.00;;
72797;SDS011;61084;55.816;37.036;2023-04-22T12:53:28;1.83;;;1.33;;
72797;SDS011;61084;55.816;37.036;2023-04-22T12:55:54;2.00;;;1.10;;
72797;SDS011;61084;55.816;37.036;2023-04-22T12:58:20;2.92;;;1.50;;
72797;SDS011;61084;55.816;37.036;2023-04-22T13:00:46;3.47;;;1.30;;
72797;SDS011;61084;55.816;37.036;2023-04-22T13:03:12;2.63;;;1.20;;
72797;SDS011;61084;55.816;37.036;2023-04-22T13:05:38;3.75;;;1.70;;
72797;SDS011;61084;55.816;37.036;2023-04-22T13:08:04;6.30;;;2.30;;
72797;SDS011;61084;55.816;37.036;2023-04-22T13:10:31;1.95;;;1.48;;
72797;SDS011;61084;55.816;37.036;2023-04-22T13:12:57;2.85;;;1.35;;
72797;SDS011;61084;55.816;37.036;2023-04-22T13:15:23;2.60;;;1.25;;
72797;SDS011;61084;55.816;37.036;2023-04-22T13:17:51;2.75;;;0.98;;
72797;SDS011;61084;55.816;37.036;2023-04-22T13:20:17;1.05;;;0.80;;
72797;SDS011;61084;55.816;37.036;2023-04-22T13:22:43;4.60;;;1.10;;
72797;SDS011;61084;55.816;37.036;2023-04-22T13:25:11;2.65;;;1.10;;
72797;SDS011;61084;55.816;37.036;2023-04-22T13:27:37;10.18;;;1.17;;
72797;SDS011;61084;55.816;37.036;2023-04-22T13:30:06;1.60;;;0.85;;
72797;SDS011;61084;55.816;37.036;2023-04-22T13:32:33;4.07;;;1.50;;
72797;SDS011;61084;55.816;37.036;2023-04-22T13:34:59;6.07;;;1.70;;
72797;SDS011;61084;55.816;37.036;2023-04-22T13:37:24;3.90;;;1.00;;
72797;SDS011;61084;55.816;37.036;2023-04-22T13:39:53;3.45;;;1.20;;
72797;SDS011;61084;55.816;37.036;2023-04-22T13:42:19;3.15;;;1.15;;
72797;SDS011;61084;55.816;37.036;2023-04-22T13:44:45;2.35;;;1.20;;
72797;SDS011;61084;55.816;37.036;2023-04-22T13:47:11;2.95;;;1.10;;
72797;SDS011;61084;55.816;37.036;2023-04-22T13:49:37;1.90;;;1.30;;
72797;SDS011;61084;55.816;37.036;2023-04-22T13:52:03;2.20;;;1.30;;
72797;SDS011;61084;55.816;37.036;2023-04-22T13:54:29;3.83;;;1.40;;
72797;SDS011;61084;55.816;37.036;2023-04-22T13:56:55;3.50;;;1.25;;
72797;SDS011;61084;55.816;37.036;2023-04-22T13:59:21;3.35;;;1.83;;
72797;SDS011;61084;55.816;37.036;2023-04-22T14:01:47;8.43;;;2.03;;
72797;SDS011;61084;55.816;37.036;2023-04-22T14:04:12;5.47;;;1.92;;
72797;SDS011;61084;55.816;37.036;2023-04-22T14:06:38;3.28;;;1.60;;
72797;SDS011;61084;55.816;37.036;2023-04-22T14:09:04;3.45;;;1.50;;
72797;SDS011;61084;55.816;37.036;2023-04-22T14:11:31;2.72;;;1.25;;
72797;SDS011;61084;55.816;37.036;2023-04-22T14:14:00;3.47;;;1.23;;
72797;SDS011;61084;55.816;37.036;2023-04-22T14:16:26;2.88;;;1.40;;
72797;SDS011;61084;55.816;37.036;2023-04-22T14:18:52;2.00;;;1.23;;
72797;SDS011;61084;55.816;37.036;2023-04-22T14:21:19;1.83;;;1.10;;
72797;SDS011;61084;55.816;37.036;2023-04-22T14:23:45;1.90;;;1.02;;
72797;SDS011;61084;55.816;37.036;2023-04-22T14:26:11;4.60;;;1.30;;
72797;SDS011;61084;55.816;37.036;2023-04-22T14:28:37;1.73;;;1.10;;
72797;SDS011;61084;55.816;37.036;2023-04-22T14:31:04;1.40;;;0.90;;
72797;SDS011;61084;55.816;37.036;2023-04-22T14:33:32;6.32;;;1.25;;
72797;SDS011;61084;55.816;37.036;2023-04-22T14:35:58;2.45;;;1.00;;
72797;SDS011;61084;55.816;37.036;2023-04-22T14:38:24;3.67;;;1.25;;
72797;SDS011;61084;55.816;37.036;2023-04-22T14:40:50;3.10;;;1.00;;
72797;SDS011;61084;55.816;37.036;2023-04-22T14:43:17;2.03;;;1.50;;
72797;SDS011;61084;55.816;37.036;2023-04-22T14:45:44;1.80;;;0.95;;
72797;SDS011;61084;55.816;37.036;2023-04-22T14:48:11;5.00;;;1.20;;
72797;SDS011;61084;55.816;37.036;2023-04-22T14:50:37;4.65;;;2.13;;
72797;SDS011;61084;55.816;37.036;2023-04-22T14:53:03;6.63;;;2.50;;
72797;SDS011;61084;55.816;37.036;2023-04-22T14:55:47;3.88;;;2.20;;
72797;SDS011;61084;55.816;37.036;2023-04-22T14:58:13;1.88;;;1.30;;
72797;SDS011;61084;55.816;37.036;2023-04-22T15:00:39;3.85;;;1.95;;
72797;SDS011;61084;55.816;37.036;2023-04-22T15:03:05;2.20;;;1.65;;
72797;SDS011;61084;55.816;37.036;2023-04-22T15:05:34;3.97;;;1.33;;
72797;SDS011;61084;55.816;37.036;2023-04-22T15:08:13;3.03;;;0.98;;
72797;SDS011;61084;55.816;37.036;2023-04-22T15:10:39;3.38;;;1.17;;
72797;SDS011;61084;55.816;37.036;2023-04-22T15:13:05;3.70;;;1.00;;
72797;SDS011;61084;55.816;37.036;2023-04-22T15:15:33;8.43;;;3.53;;